Time;durP1;ratioP1;P1;durP2;ratioP2;P2;SDS_P1;SDS_P2;PMS_P1;PMS_P2;Temp;Humidity;BMP_temperature;BMP_pressure;BME280_temperature;BME280_humidity;BME280_pressure;Samples;Min_cycle;Max_cycle;Signal;HPM_P1;HPM_P2
2022/01/16 00:00:17;;;;;;;75.90;29.90;;;1.80;99.90;;;;;;5035573;28;20044;-52
2022/01/16 00:05:26;;;;;;;74.40;29.98;;;1.80;99.90;;;;;;5033977;28;20049;-52
2022/01/16 00:07:52;;;;;;;86.70;31.23;;;1.80;99.90;;;;;;5036730;28;20113;-51
2022/01/16 00:10:19;;;;;;;84.93;33.15;;;1.80;99.90;;;;;;5017061;28;20029;-52
2022/01/16 00:12:49;;;;;;;80.00;30.38;;;1.80;99.90;;;;;;5033507;28;20029;-53
2022/01/16 00:15:16;;;;;;;73.03;28.70;;;1.80;99.90;;;;;;5038188;28;20068;-51
2022/01/16 00:17:53;;;;;;;75.22;30.25;;;1.80;99.90;;;;;;5035728;28;20748;-52
2022/01/16 00:20:20;;;;;;;70.80;28.35;;;1.70;99.90;;;;;;5032029;28;20176;-51
2022/01/16 00:22:47;;;;;;;70.78;30.50;;;1.70;99.90;;;;;;5034620;28;20033;-51
2022/01/16 00:25:14;;;;;;;76.43;29.20;;;1.60;99.90;;;;;;5036440;28;20041;-50
2022/01/16 00:27:40;;;;;;;73.20;30.38;;;1.60;99.90;;;;;;5035366;28;20044;-51
2022/01/16 00:30:06;;;;;;;73.35;29.25;;;1.60;99.90;;;;;;5039489;28;20105;-50
2022/01/16 00:32:32;;;;;;;76.30;29.02;;;1.60;99.90;;;;;;5038372;28;20036;-49
2022/01/16 00:34:57;;;;;;;74.55;27.80;;;1.60;99.90;;;;;;5037456;28;20085;-51
2022/01/16 00:37:23;;;;;;;70.70;28.35;;;1.60;99.90;;;;;;5039866;28;20587;-52
2022/01/16 00:39:49;;;;;;;76.07;28.98;;;1.50;99.90;;;;;;5040263;28;20385;-53
2022/01/16 00:42:14;;;;;;;69.30;27.05;;;1.60;99.90;;;;;;5038564;28;20048;-51
2022/01/16 00:44:40;;;;;;;68.60;28.98;;;1.60;99.90;;;;;;5038349;28;20038;-49
2022/01/16 00:47:06;;;;;;;71.80;27.60;;;1.50;99.90;;;;;;5022528;28;20032;-49
2022/01/16 00:49:34;;;;;;;69.45;28.15;;;1.50;99.90;;;;;;5037181;28;20064;-52
2022/01/16 00:52:00;;;;;;;68.45;26.85;;;1.50;99.90;;;;;;5024386;28;20044;-50
2022/01/16 00:54:26;;;;;;;80.90;29.38;;;1.50;99.90;;;;;;5046657;28;20084;-51
2022/01/16 00:56:52;;;;;;;75.97;29.77;;;1.50;99.90;;;;;;5034773;28;20025;-52
2022/01/16 00:59:17;;;;;;;81.03;30.42;;;1.40;99.90;;;;;;5039937;28;20029;-52
2022/01/16 01:01:43;;;;;;;85.47;30.92;;;1.50;99.90;;;;;;5037083;28;20709;-50
2022/01/16 01:04:09;;;;;;;83.18;29.90;;;1.50;99.90;;;;;;5039828;28;20041;-52
2022/01/16 01:06:35;;;;;;;81.10;30.35;;;1.50;99.90;;;;;;5038431;28;20033;-50
2022/01/16 01:09:00;;;;;;;86.43;31.73;;;1.40;99.90;;;;;;5037686;28;20034;-52
2022/01/16 01:11:28;;;;;;;88.43;32.75;;;1.40;99.90;;;;;;5037438;28;20045;-51
2022/01/16 01:16:48;;;;;;;82.20;31.20;;;1.40;99.90;;;;;;5037230;28;20041;-51
2022/01/16 01:19:14;;;;;;;93.18;33.95;;;1.50;99.90;;;;;;5029019;28;20033;-51
2022/01/16 01:21:40;;;;;;;91.75;33.50;;;1.50;99.90;;;;;;5037630;28;20044;-52
2022/01/16 01:24:09;;;;;;;98.75;33.28;;;1.50;99.90;;;;;;5039349;28;20094;-49
2022/01/16 01:26:42;;;;;;;95.03;34.58;;;1.50;99.90;;;;;;5038321;28;20406;-52
2022/01/16 01:29:08;;;;;;;90.55;34.45;;;1.50;99.90;;;;;;5019572;28;20026;-50
2022/01/16 01:31:34;;;;;;;92.38;34.22;;;1.50;99.90;;;;;;5029447;28;20042;-50
2022/01/16 01:33:59;;;;;;;101.32;35.72;;;1.50;99.90;;;;;;5029950;28;20030;-51
2022/01/16 01:36:25;;;;;;;101.35;35.22;;;1.50;99.90;;;;;;5011028;28;20042;-50
2022/01/16 01:38:51;;;;;;;99.30;34.80;;;1.60;99.90;;;;;;5023481;28;20038;-51
2022/01/16 01:41:19;;;;;;;107.13;37.72;;;1.60;99.90;;;;;;5033006;28;20032;-51
2022/01/16 01:51:44;;;;;;;118.43;38.55;;;1.70;99.90;;;;;;5028511;28;20063;-50
2022/01/16 01:54:11;;;;;;;115.38;40.78;;;1.70;99.90;;;;;;5030564;28;20022;-51
2022/01/16 01:56:38;;;;;;;112.25;39.08;;;1.70;99.90;;;;;;5028417;28;20076;-50
2022/01/16 01:59:04;;;;;;;107.03;39.67;;;1.80;99.90;;;;;;5028162;28;20088;-51
2022/01/16 02:01:31;;;;;;;123.60;40.03;;;1.80;99.90;;;;;;5027392;28;20026;-52
2022/01/16 02:03:57;;;;;;;117.85;42.85;;;1.80;99.90;;;;;;5026603;28;20040;-50
2022/01/16 02:06:25;;;;;;;120.80;39.90;;;1.80;99.90;;;;;;5025007;28;20093;-51
2022/01/16 02:08:54;;;;;;;113.75;38.88;;;1.80;99.90;;;;;;5025504;28;20033;-51
2022/01/16 02:11:26;;;;;;;108.35;38.60;;;1.80;99.90;;;;;;5024987;28;20021;-49
2022/01/16 02:13:59;;;;;;;111.10;38.70;;;1.80;99.90;;;;;;5032562;28;20050;-48
2022/01/16 02:28:07;;;;;;;109.05;38.40;;;1.80;99.90;;;;;;5034347;28;20068;-50
2022/01/16 02:36:03;;;;;;;120.75;36.13;;;1.80;99.90;;;;;;4994772;28;20041;-50
2022/01/16 02:38:29;;;;;;;112.10;38.85;;;1.80;99.90;;;;;;5027293;28;20029;-51
2022/01/16 02:40:59;;;;;;;120.43;40.28;;;1.90;99.90;;;;;;5024895;28;20076;-52
2022/01/16 02:43:31;;;;;;;120.88;38.10;;;1.90;99.90;;;;;;5034108;28;20421;-52
2022/01/16 02:48:40;;;;;;;130.73;39.42;;;1.90;99.90;;;;;;5025533;28;20484;-49
2022/01/16 02:51:05;;;;;;;143.15;41.13;;;1.90;99.90;;;;;;5027953;28;20034;-49
2022/01/16 02:53:31;;;;;;;121.80;41.10;;;2.00;99.90;;;;;;5034175;28;20029;-52
2022/01/16 02:55:56;;;;;;;130.25;40.40;;;1.90;99.90;;;;;;5031364;28;20042;-50
2022/01/16 02:58:22;;;;;;;147.27;43.40;;;2.00;99.90;;;;;;5027840;28;20036;-49
2022/01/16 03:00:48;;;;;;;140.07;41.30;;;2.00;99.90;;;;;;5028924;28;20026;-51
2022/01/16 03:03:14;;;;;;;143.57;42.33;;;2.00;99.90;;;;;;5016680;28;20040;-52
2022/01/16 03:05:39;;;;;;;137.45;41.63;;;2.00;99.90;;;;;;5032554;28;20081;-52
2022/01/16 03:08:06;;;;;;;149.25;44.47;;;2.00;99.90;;;;;;5033646;28;20045;-52
2022/01/16 03:13:03;;;;;;;141.55;42.63;;;2.00;99.90;;;;;;5025514;28;20698;-49
2022/01/16 03:15:29;;;;;;;142.35;44.47;;;2.00;99.90;;;;;;5021491;28;20053;-52
2022/01/16 03:23:07;;;;;;;139.82;43.67;;;2.00;99.90;;;;;;5027109;28;20183;-52
2022/01/16 03:25:33;;;;;;;145.20;41.30;;;2.00;99.90;;;;;;5028877;28;20049;-51
2022/01/16 03:27:59;;;;;;;124.60;38.20;;;2.10;99.90;;;;;;5014582;28;20088;-51
2022/01/16 03:30:24;;;;;;;134.43;42.83;;;2.00;99.90;;;;;;5018228;28;20052;-49
2022/01/16 03:32:50;;;;;;;138.05;41.38;;;2.10;99.90;;;;;;5013442;28;20030;-51
2022/01/16 03:35:16;;;;;;;150.20;43.50;;;2.10;99.90;;;;;;5015024;28;20077;-50
2022/01/16 03:37:41;;;;;;;133.10;41.80;;;2.10;99.90;;;;;;5026314;28;20043;-51
2022/01/16 03:40:10;;;;;;;127.28;41.15;;;2.10;99.90;;;;;;5022537;28;20029;-50
2022/01/16 03:42:37;;;;;;;128.60;41.50;;;2.10;99.90;;;;;;5028346;28;20053;-49
2022/01/16 03:45:08;;;;;;;125.55;41.13;;;2.10;99.90;;;;;;5021291;28;20069;-49
2022/01/16 03:47:34;;;;;;;131.38;39.25;;;2.10;99.90;;;;;;5028667;28;20034;-49
2022/01/16 03:50:01;;;;;;;128.55;41.53;;;2.10;99.90;;;;;;5026466;28;20030;-49
2022/01/16 03:52:26;;;;;;;115.90;37.72;;;2.20;99.90;;;;;;5032548;28;20029;-49
2022/01/16 03:54:52;;;;;;;133.05;40.25;;;2.20;99.90;;;;;;5034354;28;20048;-50
2022/01/16 03:57:18;;;;;;;124.30;38.75;;;2.20;99.90;;;;;;5027205;28;20111;-49
2022/01/16 03:59:44;;;;;;;126.68;40.67;;;2.20;99.90;;;;;;5012725;28;20041;-50
2022/01/16 04:02:13;;;;;;;131.75;41.35;;;2.20;99.90;;;;;;5024699;28;20034;-53
2022/01/16 04:04:38;;;;;;;123.53;38.92;;;2.20;99.90;;;;;;5028187;28;20034;-48
2022/01/16 04:07:08;;;;;;;125.53;39.17;;;2.20;99.90;;;;;;5033089;28;20449;-50
2022/01/16 04:09:33;;;;;;;117.70;38.45;;;2.30;99.90;;;;;;5031419;28;20029;-52
2022/01/16 04:12:00;;;;;;;130.43;40.35;;;2.30;99.90;;;;;;5030190;28;20129;-51
2022/01/16 04:17:22;;;;;;;127.45;39.67;;;2.30;99.90;;;;;;5021156;28;20112;-52
2022/01/16 04:19:47;;;;;;;132.40;38.30;;;2.30;99.90;;;;;;5028477;28;20018;-50
2022/01/16 04:22:14;;;;;;;126.32;39.28;;;2.40;99.90;;;;;;5028893;28;20113;-49
2022/01/16 04:24:40;;;;;;;130.07;40.50;;;2.40;99.90;;;;;;5031444;28;20046;-52
2022/01/16 04:27:08;;;;;;;135.88;40.13;;;2.40;99.90;;;;;;5027997;28;20040;-51
2022/01/16 04:29:33;;;;;;;138.70;40.47;;;2.40;99.90;;;;;;5034497;28;20156;-52
2022/01/16 04:31:59;;;;;;;135.93;42.35;;;2.40;99.90;;;;;;5024633;28;20711;-49
2022/01/16 04:34:25;;;;;;;129.57;39.58;;;2.40;99.90;;;;;;5034052;28;20025;-52
2022/01/16 04:36:50;;;;;;;129.40;40.20;;;2.50;99.90;;;;;;5009702;28;20033;-52
2022/01/16 04:39:19;;;;;;;131.05;40.35;;;2.50;99.90;;;;;;5031093;28;20085;-52
2022/01/16 04:44:30;;;;;;;132.85;39.97;;;2.50;99.90;;;;;;5025502;28;20093;-52
2022/01/16 04:46:56;;;;;;;131.23;39.78;;;2.60;99.90;;;;;;5031700;28;20053;-51
2022/01/16 04:49:22;;;;;;;130.20;42.33;;;2.60;99.90;;;;;;5035630;28;20034;-50
2022/01/16 04:51:48;;;;;;;129.52;39.97;;;2.60;99.90;;;;;;5032579;28;20053;-51
2022/01/16 04:54:13;;;;;;;133.52;40.05;;;2.60;99.90;;;;;;5027026;28;20114;-51
2022/01/16 04:56:39;;;;;;;135.82;41.85;;;2.60;99.90;;;;;;5024990;28;20059;-52
2022/01/16 04:59:05;;;;;;;131.45;39.88;;;2.60;99.90;;;;;;5031239;28;20037;-53
2022/01/16 05:01:31;;;;;;;135.13;42.90;;;2.70;99.90;;;;;;5008546;28;20034;-50
2022/01/16 05:03:57;;;;;;;120.88;38.85;;;2.70;99.90;;;;;;5030614;28;20030;-52
2022/01/16 05:06:23;;;;;;;131.43;42.15;;;2.70;99.90;;;;;;5032546;28;20045;-52
2022/01/16 05:08:49;;;;;;;131.18;41.30;;;2.70;99.90;;;;;;5027129;28;20047;-52
2022/01/16 05:11:20;;;;;;;129.50;41.58;;;2.70;99.90;;;;;;5016578;28;20057;-49
2022/01/16 05:18:56;;;;;;;128.73;40.40;;;2.70;99.90;;;;;;5027709;28;20120;-51
2022/01/16 05:21:22;;;;;;;125.40;39.92;;;2.70;99.90;;;;;;5015811;28;20052;-49
2022/01/16 05:23:48;;;;;;;134.88;42.55;;;2.80;99.90;;;;;;5010879;28;20470;-51
2022/01/16 05:26:18;;;;;;;127.03;43.30;;;2.80;99.90;;;;;;5026117;28;20045;-52
2022/01/16 05:28:44;;;;;;;142.25;44.17;;;2.80;99.90;;;;;;5027570;28;20374;-49
2022/01/16 05:31:10;;;;;;;130.32;43.10;;;2.80;99.90;;;;;;5021362;28;20037;-51
2022/01/16 05:33:36;;;;;;;138.82;43.22;;;2.80;99.90;;;;;;5027967;28;20034;-51
2022/01/16 05:36:02;;;;;;;118.15;40.30;;;2.80;99.90;;;;;;5013797;28;20038;-52
2022/01/16 05:38:28;;;;;;;131.48;39.60;;;2.80;99.90;;;;;;5030559;28;20026;-50
2022/01/16 05:40:53;;;;;;;130.65;41.75;;;2.90;99.90;;;;;;5027203;28;20056;-52
2022/01/16 05:43:19;;;;;;;124.22;40.35;;;2.90;99.90;;;;;;5019243;28;20037;-56
2022/01/16 05:45:45;;;;;;;126.78;40.72;;;2.90;99.90;;;;;;5031276;28;20122;-51
2022/01/16 05:48:10;;;;;;;124.28;42.60;;;2.90;99.90;;;;;;5034365;28;20037;-51
2022/01/16 05:50:36;;;;;;;137.52;42.80;;;2.90;99.90;;;;;;5019986;28;20038;-53
2022/01/16 05:53:02;;;;;;;135.88;40.92;;;2.90;99.90;;;;;;5031897;28;20065;-52
2022/01/16 05:55:36;;;;;;;121.05;39.90;;;3.00;99.90;;;;;;5033182;28;20045;-51
2022/01/16 05:58:06;;;;;;;133.82;42.53;;;2.90;99.90;;;;;;5026527;28;20068;-52
2022/01/16 06:00:33;;;;;;;138.65;41.17;;;3.00;99.90;;;;;;5029478;28;20021;-50
2022/01/16 06:02:59;;;;;;;134.60;41.83;;;3.00;99.90;;;;;;5031818;28;20105;-51
2022/01/16 06:05:24;;;;;;;132.63;43.83;;;3.00;99.90;;;;;;5028155;28;20042;-48
2022/01/16 06:07:54;;;;;;;128.52;40.75;;;3.00;99.90;;;;;;5026560;28;20030;-51
2022/01/16 06:10:19;;;;;;;139.63;43.78;;;3.00;99.90;;;;;;5027578;28;20037;-53
2022/01/16 06:12:46;;;;;;;125.88;41.60;;;3.00;99.90;;;;;;5028943;28;20091;-49
2022/01/16 06:15:11;;;;;;;140.82;42.22;;;3.00;99.90;;;;;;5029600;28;20025;-50
2022/01/16 06:17:37;;;;;;;140.35;43.65;;;3.10;99.90;;;;;;5026918;28;20036;-52
2022/01/16 06:20:04;;;;;;;142.93;43.03;;;3.10;99.90;;;;;;5032625;28;20052;-52
2022/01/16 06:22:29;;;;;;;134.90;42.42;;;3.10;99.90;;;;;;5023254;28;20571;-52
2022/01/16 06:24:55;;;;;;;135.90;40.00;;;3.10;99.90;;;;;;5026239;28;20042;-50
2022/01/16 06:27:21;;;;;;;132.27;43.22;;;3.10;99.90;;;;;;5029678;28;20509;-52
2022/01/16 06:29:46;;;;;;;128.55;41.47;;;3.10;99.90;;;;;;5025852;28;20030;-51
2022/01/16 06:32:12;;;;;;;140.75;44.53;;;3.20;99.90;;;;;;5030213;28;20026;-52
2022/01/16 06:34:37;;;;;;;137.45;41.13;;;3.10;99.90;;;;;;5030436;28;20089;-53
2022/01/16 06:37:03;;;;;;;139.35;43.83;;;3.20;99.90;;;;;;5030588;28;20302;-51
2022/01/16 06:39:29;;;;;;;141.05;43.78;;;3.20;99.90;;;;;;5010589;28;20049;-51
2022/01/16 06:41:56;;;;;;;146.25;43.60;;;3.20;99.90;;;;;;5027211;28;20053;-52
2022/01/16 06:44:22;;;;;;;141.27;43.33;;;3.20;99.90;;;;;;5029102;28;20085;-52
2022/01/16 06:46:47;;;;;;;143.20;42.70;;;3.20;99.90;;;;;;5025783;28;20026;-51
2022/01/16 06:49:13;;;;;;;137.18;43.25;;;3.20;99.90;;;;;;5025955;28;20026;-49
2022/01/16 06:51:39;;;;;;;127.65;42.35;;;3.20;99.90;;;;;;5024903;28;20064;-49
2022/01/16 06:54:05;;;;;;;143.02;42.92;;;3.20;99.90;;;;;;5025903;28;20037;-51
2022/01/16 06:56:31;;;;;;;138.00;42.53;;;3.30;99.90;;;;;;5025355;28;20115;-53
2022/01/16 06:58:58;;;;;;;150.13;44.88;;;3.30;99.90;;;;;;5027764;28;20025;-53
2022/01/16 07:01:25;;;;;;;144.45;44.35;;;3.30;99.90;;;;;;5032452;28;20419;-52
2022/01/16 07:03:51;;;;;;;138.30;42.53;;;3.30;99.90;;;;;;5025469;28;20049;-52
2022/01/16 07:06:17;;;;;;;147.25;43.45;;;3.30;99.90;;;;;;5032857;28;20056;-51
2022/01/16 07:08:43;;;;;;;147.93;44.17;;;3.40;99.90;;;;;;5027773;28;20026;-52
2022/01/16 07:11:09;;;;;;;141.52;42.67;;;3.40;99.90;;;;;;5011692;28;20073;-53
2022/01/16 07:13:35;;;;;;;132.52;42.67;;;3.40;99.90;;;;;;5030546;28;20504;-52
2022/01/16 07:16:01;;;;;;;138.93;44.75;;;3.40;99.90;;;;;;5032286;28;20022;-50
2022/01/16 07:18:28;;;;;;;132.23;43.22;;;3.50;99.90;;;;;;5021386;28;22041;-53
2022/01/16 07:20:54;;;;;;;138.30;44.25;;;3.40;99.90;;;;;;5028520;28;20032;-50
2022/01/16 07:23:20;;;;;;;138.30;43.70;;;3.50;99.90;;;;;;5024643;28;20022;-53
2022/01/16 07:25:46;;;;;;;151.68;44.53;;;3.50;99.90;;;;;;5010925;28;20041;-52
2022/01/16 07:28:12;;;;;;;139.18;43.08;;;3.60;99.90;;;;;;5026724;28;20061;-50
2022/01/16 07:30:39;;;;;;;132.15;43.03;;;3.60;99.90;;;;;;5026211;28;20033;-53
2022/01/16 07:33:06;;;;;;;142.20;46.45;;;3.60;99.90;;;;;;5029805;28;20435;-53
2022/01/16 07:35:33;;;;;;;134.23;43.08;;;3.70;99.90;;;;;;5028058;28;20030;-53
2022/01/16 07:37:59;;;;;;;145.70;45.13;;;3.70;99.90;;;;;;5012488;28;20061;-53
2022/01/16 07:40:26;;;;;;;131.10;43.88;;;3.80;99.90;;;;;;5032674;28;20029;-52
2022/01/16 07:42:52;;;;;;;143.27;44.97;;;3.80;99.90;;;;;;5029830;28;20025;-52
2022/01/16 07:45:18;;;;;;;133.95;44.78;;;3.80;99.90;;;;;;5037005;28;20046;-51
2022/01/16 07:47:44;;;;;;;145.55;46.60;;;3.80;99.90;;;;;;5032943;28;20030;-52
2022/01/16 07:50:12;;;;;;;136.38;44.13;;;3.90;99.90;;;;;;5030798;28;20029;-51
2022/01/16 07:52:37;;;;;;;140.57;45.15;;;3.90;99.90;;;;;;5032612;28;20514;-53
2022/01/16 07:55:03;;;;;;;141.05;46.60;;;4.00;99.90;;;;;;5015561;28;20057;-51
2022/01/16 07:57:40;;;;;;;140.63;45.10;;;4.00;99.90;;;;;;5028419;28;20037;-53
2022/01/16 08:00:21;;;;;;;145.98;44.83;;;4.00;99.90;;;;;;5028861;28;20044;-53
2022/01/16 08:02:53;;;;;;;130.95;44.13;;;4.10;99.90;;;;;;5033188;28;20041;-53
2022/01/16 08:05:26;;;;;;;133.02;43.30;;;4.10;99.90;;;;;;5035529;28;20048;-52
2022/01/16 08:07:51;;;;;;;135.45;44.30;;;4.20;99.90;;;;;;5019469;28;20045;-52
2022/01/16 08:10:17;;;;;;;138.18;45.15;;;4.20;99.90;;;;;;5035344;28;20037;-53
2022/01/16 08:12:43;;;;;;;138.73;45.17;;;4.20;99.90;;;;;;5037657;28;20033;-53
2022/01/16 08:15:26;;;;;;;127.85;44.60;;;4.20;99.90;;;;;;5037611;28;20120;-52
2022/01/16 08:17:52;;;;;;;130.32;44.08;;;4.30;99.90;;;;;;5020284;28;20041;-52
2022/01/16 08:20:18;;;;;;;136.25;46.60;;;4.30;99.90;;;;;;5034134;28;20030;-54
2022/01/16 08:22:46;;;;;;;129.75;46.13;;;4.30;99.90;;;;;;5040356;28;20041;-53
2022/01/16 08:25:15;;;;;;;122.82;45.63;;;4.30;99.90;;;;;;5022628;28;20069;-53
2022/01/16 08:27:43;;;;;;;135.80;46.13;;;4.40;99.90;;;;;;5039811;28;20354;-53
2022/01/16 08:30:11;;;;;;;136.68;44.58;;;4.40;99.90;;;;;;5033660;28;20398;-53
2022/01/16 08:32:43;;;;;;;123.13;43.85;;;4.40;99.90;;;;;;5038480;28;20045;-53
2022/01/16 08:35:16;;;;;;;121.82;44.60;;;4.40;99.90;;;;;;5035062;28;20032;-54
2022/01/16 08:37:41;;;;;;;125.93;44.95;;;4.50;99.90;;;;;;5031507;28;20373;-52
2022/01/16 08:40:20;;;;;;;119.78;45.85;;;4.50;99.90;;;;;;5034825;28;20057;-51
2022/01/16 08:42:46;;;;;;;125.07;47.67;;;4.50;99.90;;;;;;5032811;28;20025;-54
2022/01/16 08:45:15;;;;;;;111.75;42.03;;;4.50;99.90;;;;;;5015699;28;20084;-55
2022/01/16 08:47:40;;;;;;;119.45;43.25;;;4.50;99.90;;;;;;5029022;28;20029;-54
2022/01/16 08:50:11;;;;;;;115.25;42.42;;;4.50;99.90;;;;;;5012202;28;20025;-54
2022/01/16 08:52:38;;;;;;;101.17;39.13;;;4.50;99.90;;;;;;5034152;28;20029;-53
2022/01/16 08:55:09;;;;;;;106.10;42.25;;;4.50;99.90;;;;;;5033609;28;20077;-53
2022/01/16 08:58:29;;;;;;;108.53;40.45;;;4.50;99.90;;;;;;5034086;28;20069;-53
2022/01/16 09:00:58;;;;;;;108.50;41.78;;;4.60;99.90;;;;;;4995852;28;20045;-50
2022/01/16 09:03:24;;;;;;;102.60;39.75;;;4.70;99.90;;;;;;5031701;28;20038;-53
2022/01/16 09:05:51;;;;;;;107.35;42.72;;;4.70;99.90;;;;;;5028131;28;20042;-52
2022/01/16 09:08:18;;;;;;;109.85;42.40;;;4.70;99.90;;;;;;5029975;28;20022;-54
2022/01/16 09:10:45;;;;;;;104.20;39.63;;;4.80;99.90;;;;;;5031670;28;20029;-54
2022/01/16 09:13:12;;;;;;;117.28;41.97;;;4.90;99.90;;;;;;5028071;28;20045;-54
2022/01/16 09:15:53;;;;;;;106.65;41.13;;;5.00;99.90;;;;;;5030700;28;20036;-54
2022/01/16 09:18:19;;;;;;;101.20;39.65;;;5.00;99.90;;;;;;5016834;28;20042;-54
2022/01/16 09:20:45;;;;;;;93.38;39.60;;;5.10;99.90;;;;;;5025062;28;20117;-54
2022/01/16 09:23:12;;;;;;;97.68;38.83;;;5.10;99.90;;;;;;5031977;28;20029;-54
2022/01/16 09:25:38;;;;;;;93.20;39.38;;;5.20;99.90;;;;;;5027999;28;20044;-57
2022/01/16 09:28:04;;;;;;;91.10;38.22;;;5.20;99.90;;;;;;5027348;28;20021;-54
2022/01/16 09:30:31;;;;;;;91.43;40.03;;;5.20;99.90;;;;;;5033566;28;20121;-54
2022/01/16 09:32:59;;;;;;;94.07;37.50;;;5.20;99.90;;;;;;5029951;28;20037;-57
2022/01/16 09:35:28;;;;;;;86.35;38.38;;;5.20;99.90;;;;;;5028498;28;20032;-54
2022/01/16 09:37:58;;;;;;;80.20;36.13;;;5.30;99.90;;;;;;5009306;28;20042;-59
2022/01/16 09:40:24;;;;;;;84.22;35.67;;;5.30;99.90;;;;;;5001298;28;20378;-57
2022/01/16 09:42:49;;;;;;;76.93;35.08;;;5.40;99.90;;;;;;5016101;28;20351;-56
2022/01/16 09:45:18;;;;;;;78.03;35.50;;;5.40;99.90;;;;;;5032751;28;20040;-56
2022/01/16 09:48:09;;;;;;;84.95;35.90;;;5.40;99.90;;;;;;5027833;28;20040;-55
2022/01/16 09:52:02;;;;;;;;;;;;;;;;;;;;;
2022/01/16 09:54:31;;;;;;;;;;;5.40;99.90;;;;;;4894685;29;20050;-55
2022/01/16 09:57:03;;;;;;;75.72;33.60;;;5.40;99.90;;;;;;5001948;22;19903;31
2022/01/16 09:59:29;;;;;;;74.85;34.05;;;5.50;99.90;;;;;;5023436;28;20046;-89
2022/01/16 10:01:55;;;;;;;81.07;34.97;;;5.50;99.90;;;;;;5016261;28;20079;-89
2022/01/16 10:04:44;;;;;;;75.22;34.10;;;5.50;99.90;;;;;;5010233;28;20030;-88
2022/01/16 10:07:14;;;;;;;84.45;33.47;;;5.50;99.90;;;;;;5012973;28;20052;-88
2022/01/16 10:09:43;;;;;;;74.50;33.50;;;5.50;99.90;;;;;;5008966;28;20018;-90
2022/01/16 10:12:17;;;;;;;69.20;33.05;;;5.50;99.90;;;;;;5035919;28;20022;-90
2022/01/16 10:14:47;;;;;;;72.07;31.90;;;5.60;99.90;;;;;;5033491;28;20041;-90
2022/01/16 10:17:24;;;;;;;71.07;33.33;;;5.60;99.90;;;;;;5012982;28;20015;-90
2022/01/16 10:20:01;;;;;;;70.10;30.38;;;5.60;99.90;;;;;;5016142;28;20041;-91
2022/01/16 10:22:42;;;;;;;61.72;30.70;;;5.60;99.90;;;;;;5013832;28;20036;-90
2022/01/16 10:25:09;;;;;;;70.15;30.80;;;5.60;99.90;;;;;;5025363;28;20054;-92
2022/01/16 10:27:38;;;;;;;63.83;30.80;;;5.70;99.90;;;;;;5014219;28;20053;-91
2022/01/16 10:32:40;;;;;;;68.95;29.02;;;5.70;99.90;;;;;;5009448;28;20038;-89
2022/01/16 10:35:14;;;;;;;61.05;29.08;;;5.70;99.90;;;;;;4992360;28;20026;-88
2022/01/16 10:37:48;;;;;;;56.42;27.35;;;5.70;99.90;;;;;;5009500;28;20116;-89
2022/01/16 10:40:18;;;;;;;63.55;28.58;;;5.70;99.90;;;;;;5013462;28;20025;-91
2022/01/16 10:42:53;;;;;;;60.70;28.73;;;5.70;99.90;;;;;;4990979;28;20465;-89
2022/01/16 10:45:24;;;;;;;55.67;28.92;;;5.80;99.90;;;;;;4993624;28;20038;-90
2022/01/16 10:47:53;;;;;;;62.53;27.67;;;5.80;99.90;;;;;;5010399;28;20057;-90
2022/01/16 10:50:22;;;;;;;59.03;26.38;;;5.80;99.90;;;;;;4994565;28;20033;-89
2022/01/16 10:53:00;;;;;;;53.75;24.98;;;5.90;99.90;;;;;;5018204;28;20017;-88
2022/01/16 10:55:46;;;;;;;48.30;24.25;;;5.90;99.90;;;;;;4995310;28;20040;-88
2022/01/16 10:58:18;;;;;;;48.10;24.05;;;5.90;99.90;;;;;;4996271;28;20087;-85
2022/01/16 11:01:09;;;;;;;;;;;5.90;99.90;;;;;;4998068;28;20018;-86
2022/01/16 11:03:45;;;;;;;47.50;22.48;;;6.00;99.90;;;;;;5011056;28;19909;-85
2022/01/16 11:06:11;;;;;;;47.35;22.13;;;6.00;99.90;;;;;;5015882;28;20095;-87
2022/01/16 11:08:38;;;;;;;43.92;22.17;;;6.00;99.90;;;;;;5009492;28;20612;-86
2022/01/16 11:11:06;;;;;;;48.25;21.67;;;6.00;99.90;;;;;;4979178;28;20029;-85
2022/01/16 11:13:34;;;;;;;47.95;20.90;;;6.00;99.90;;;;;;5003446;28;20030;-87
2022/01/16 11:16:03;;;;;;;40.20;20.67;;;6.10;99.90;;;;;;5026436;28;20422;-92
2022/01/16 11:18:30;;;;;;;40.47;18.83;;;6.10;99.90;;;;;;4992927;28;20113;-86
2022/01/16 11:21:13;;;;;;;38.28;19.50;;;6.10;99.90;;;;;;4994926;28;20033;-86
2022/01/16 11:23:49;;;;;;;36.28;18.10;;;6.10;99.90;;;;;;4996011;28;20026;-90
2022/01/16 11:26:18;;;;;;;41.95;18.27;;;6.10;99.90;;;;;;4993704;28;20030;-89
2022/01/16 11:28:43;;;;;;;40.40;16.90;;;6.20;99.90;;;;;;4994791;28;20025;-87
2022/01/16 11:31:11;;;;;;;34.72;17.05;;;6.20;99.90;;;;;;4984036;28;20054;-86
2022/01/16 11:33:38;;;;;;;36.03;15.93;;;6.20;99.90;;;;;;4997188;28;20034;-85
2022/01/16 11:36:06;;;;;;;33.08;15.80;;;6.20;99.90;;;;;;5023829;28;20089;-91
2022/01/16 11:38:39;;;;;;;33.10;16.27;;;6.20;99.90;;;;;;5003113;28;20034;-86
2022/01/16 11:41:23;;;;;;;35.72;16.52;;;6.20;99.90;;;;;;5023975;28;20116;-82
2022/01/16 11:43:51;;;;;;;33.40;14.88;;;6.20;99.90;;;;;;4992608;28;20049;-83
2022/01/16 11:46:22;;;;;;;33.92;15.63;;;6.20;99.90;;;;;;4993430;28;20034;-83
2022/01/16 11:48:58;;;;;;;29.73;15.82;;;6.20;99.90;;;;;;5009026;28;20083;-84
2022/01/16 11:51:37;;;;;;;32.33;15.00;;;6.20;99.90;;;;;;4992962;28;20033;-85
2022/01/16 11:54:15;;;;;;;28.65;14.40;;;6.20;99.90;;;;;;5009944;28;20124;-86
2022/01/16 11:56:41;;;;;;;28.08;12.75;;;6.20;99.90;;;;;;4992523;28;20077;-83
2022/01/16 11:59:21;;;;;;;26.25;13.18;;;6.20;99.90;;;;;;4993474;28;20389;-82
2022/01/16 12:02:01;;;;;;;24.08;12.07;;;6.30;99.90;;;;;;5012709;28;20030;-82
2022/01/16 12:04:29;;;;;;;23.15;12.27;;;6.30;99.90;;;;;;5014147;28;20087;-83
2022/01/16 12:07:04;;;;;;;26.85;11.50;;;6.30;99.90;;;;;;5015457;28;20461;-82
2022/01/16 12:12:14;;;;;;;22.70;11.57;;;6.30;99.90;;;;;;5013395;28;20038;-83
2022/01/16 12:14:57;;;;;;;22.60;10.85;;;6.30;99.90;;;;;;5013865;28;20026;-83
2022/01/16 12:17:30;;;;;;;26.30;11.25;;;6.40;99.90;;;;;;5013068;28;20029;-82
2022/01/16 12:20:12;;;;;;;21.00;9.80;;;6.40;99.90;;;;;;4996013;28;20030;-81
2022/01/16 12:22:53;;;;;;;21.45;10.23;;;6.50;99.90;;;;;;4995800;28;20033;-82
2022/01/16 12:25:27;;;;;;;22.33;9.38;;;6.50;99.90;;;;;;5017027;28;20041;-82
2022/01/16 12:28:01;;;;;;;23.15;9.13;;;6.50;99.90;;;;;;5000228;28;20026;-82
2022/01/16 12:30:49;;;;;;;20.75;8.90;;;6.60;99.90;;;;;;5016862;28;20084;-81
2022/01/16 12:33:14;;;;;;;24.25;10.35;;;6.60;99.90;;;;;;5016834;28;20022;-82
2022/01/16 12:35:50;;;;;;;20.38;9.38;;;6.60;99.90;;;;;;5020285;28;20026;-82
2022/01/16 12:38:23;;;;;;;18.63;9.23;;;6.60;99.90;;;;;;5008347;28;20032;-82
2022/01/16 12:41:33;;;;;;;17.90;8.38;;;6.70;99.90;;;;;;5019082;28;20410;-82
2022/01/16 12:44:25;;;;;;;24.13;8.85;;;6.60;99.90;;;;;;5008685;28;20037;-82
2022/01/16 12:46:52;;;;;;;;;;;6.70;99.90;;;;;;5032185;28;20129;-84
2022/01/16 12:49:26;;;;;;;18.75;8.60;;;6.70;99.90;;;;;;4998829;28;19912;-84
2022/01/16 12:51:54;;;;;;;18.90;8.88;;;6.70;99.90;;;;;;5016694;28;20045;-84
2022/01/16 12:54:24;;;;;;;17.63;8.50;;;6.70;99.90;;;;;;4998948;28;20377;-84
2022/01/16 12:56:52;;;;;;;15.95;8.65;;;6.70;99.90;;;;;;5016001;28;20022;-84
2022/01/16 12:59:27;;;;;;;18.13;9.05;;;6.70;99.90;;;;;;5016693;28;20054;-85
2022/01/16 13:01:55;;;;;;;17.85;9.05;;;6.70;99.90;;;;;;5016408;28;20034;-84
2022/01/16 13:04:27;;;;;;;23.10;9.43;;;6.70;99.90;;;;;;5015895;28;20028;-83
2022/01/16 13:06:58;;;;;;;18.83;9.38;;;6.70;99.90;;;;;;5032270;28;20515;-83
2022/01/16 13:09:24;;;;;;;25.35;9.45;;;6.80;99.90;;;;;;5001957;28;20405;-83
2022/01/16 13:11:52;;;;;;;22.77;8.93;;;6.80;99.90;;;;;;5016787;28;20060;-85
2022/01/16 13:14:25;;;;;;;22.55;10.23;;;6.80;99.90;;;;;;5035861;28;20025;-82
2022/01/16 13:16:56;;;;;;;22.85;9.00;;;6.80;99.90;;;;;;5003412;28;20438;-83
2022/01/16 13:19:24;;;;;;;28.45;9.70;;;6.80;99.90;;;;;;4998040;28;20052;-83
2022/01/16 13:22:01;;;;;;;20.83;9.95;;;6.90;99.90;;;;;;5012051;28;20025;-84
2022/01/16 13:24:31;;;;;;;19.02;9.77;;;6.80;99.90;;;;;;4999640;28;20028;-85
2022/01/16 13:26:57;;;;;;;25.92;10.25;;;6.80;99.90;;;;;;5015928;28;20014;-85
2022/01/16 13:29:23;;;;;;;19.75;9.93;;;6.80;99.90;;;;;;4983070;28;20080;-85
2022/01/16 13:31:50;;;;;;;21.60;11.85;;;6.80;99.90;;;;;;4999049;28;20049;-85
2022/01/16 13:34:18;;;;;;;22.00;11.38;;;6.80;99.90;;;;;;5015564;28;20057;-85
2022/01/16 13:36:53;;;;;;;17.75;11.68;;;6.80;99.90;;;;;;4997898;28;20017;-85
2022/01/16 13:39:46;;;;;;;23.90;11.05;;;6.80;99.90;;;;;;4997677;28;20024;-85